Bookmark and Share
Track history (hours):
 

Suederoog

Last reported at 2014-Apr-12 00:30 UTC. Time now 2014-Apr-17 03:54 UTC.
Position N 35°54' W 008°43'.

Length 161 m; draft 9.9 m.

Type: Ship (hazmat cat A). MMSI: 236300000.

NotesDate/timePositionNaut miles runAvg speedWind from/ knotsBaromVisibWave heightAir tempDewpointWater temp
2014-Apr-12 00:30N 35°54' W 008°43'1412.7
2014-Apr-11 23:22N 36°07' W 008°50'4311.1
2014-Apr-11 19:28N 36°40' W 009°25'1111.8
2014-Apr-11 18:31N 36°48' W 009°34'1311.8
2014-Apr-11 17:27N 37°01' W 009°37'1111.7
2014-Apr-11 16:32N 37°11' W 009°40'1211.8
2014-Apr-11 15:31N 37°23' W 009°44'1211.8
2014-Apr-11 14:28N 37°35' W 009°47'1414.9
2014-Apr-11 13:33N 37°48' W 009°51'1514.5
2014-Apr-11 12:32N 38°03' W 009°55'1111.6
2014-Apr-11 11:33N 38°14' W 009°58'1111.5
2014-Apr-11 10:33N 38°25' W 010°02'1211.8
2014-Apr-11 09:33N 38°36' W 010°05'1211.6
2014-Apr-11 08:30N 38°49' W 010°06'1311.5
2014-Apr-11 07:24N 39°01' W 010°06'  
2014-Apr-07 22:33N 50°34' E 000°22'1010.1
2014-Apr-07 21:33N 50°38' E 000°37'1010.2
2014-Apr-07 20:33N 50°44' E 000°50'30 9.9
2014-Apr-07 17:32N 51°03' E 001°26'9 9.5
2014-Apr-07 16:33N 51°09' E 001°37'1010.3
2014-Apr-07 15:33N 51°16' E 001°49'1111.3
2014-Apr-07 14:33N 51°25' E 002°01'1515.4
2014-Apr-07 13:33N 51°22' E 002°25'1312.8
2014-Apr-07 12:34N 51°22' E 002°46'1616.0
2014-Apr-07 11:33N 51°24' E 003°11'1616.0
2014-Apr-07 10:33N 51°26' E 003°37'1312.9
2014-Apr-07 09:34N 51°25' E 003°58'1211.7
2014-Apr-07 08:34N 51°21' E 004°15'3 3.0
2014-Apr-07 07:32N 51°18' E 004°16'0 0.0
2014-Apr-07 06:33N 51°18' E 004°16'0 0.0
2014-Apr-07 05:24N 51°18' E 004°16'0 0.0
2014-Apr-07 04:24N 51°18' E 004°16'0 0.0
2014-Apr-07 03:33N 51°18' E 004°16'0 0.0
2014-Apr-07 02:30N 51°18' E 004°16'0 0.0
2014-Apr-07 01:30N 51°18' E 004°16'0 0.0
2014-Apr-07 00:33N 51°18' E 004°16'0 0.0
2014-Apr-06 23:27N 51°18' E 004°16'0 0.0
2014-Apr-06 22:33N 51°18' E 004°16'0 0.0
2014-Apr-06 21:33N 51°18' E 004°16'0 0.0
2014-Apr-06 20:24N 51°18' E 004°16'0 0.0
2014-Apr-06 19:33N 51°18' E 004°16'0 0.0
2014-Apr-06 18:27N 51°18' E 004°16'2 2.2
2014-Apr-06 17:34N 51°20' E 004°16'1110.7
2014-Apr-06 16:33N 51°25' E 004°02'1212.4
2014-Apr-06 15:33N 51°25' E 003°42'1413.6
2014-Apr-06 14:33N 51°24' E 003°20'1212.0
2014-Apr-06 13:33N 51°29' E 003°02'1615.9
2014-Apr-06 12:33N 51°44' E 003°13'4210.4
2014-Apr-06 08:33N 52°25' E 003°26'10 9.8
2014-Apr-06 07:33N 52°34' E 003°29'6310.5
2014-Apr-06 01:32N 53°24' E 004°34'1010.3
2014-Apr-06 00:33N 53°31' E 004°46'1010.0
2014-Apr-05 23:33N 53°34' E 005°01'10 9.8
2014-Apr-05 22:33N 53°38' E 005°17'10 9.7
2014-Apr-05 21:33N 53°41' E 005°33'1010.4
2014-Apr-05 20:33N 53°44' E 005°49'1211.5
2014-Apr-05 19:30N 53°48' E 006°09'3712.4
2014-Apr-05 16:32N 53°56' E 007°10'1211.8
2014-Apr-05 15:33N 53°59' E 007°29'9 9.2
2014-Apr-05 14:33N 53°55' E 007°44'1211.6
2014-Apr-05 13:33N 53°51' E 008°02'1514.7
2014-Apr-05 12:33N 53°42' E 008°21'9 8.8
2014-Apr-05 11:33N 53°35' E 008°31'0 0.0
2014-Apr-05 10:31N 53°35' E 008°31'0 0.0
2014-Apr-05 09:31N 53°35' E 008°31'0 0.0
2014-Apr-05 08:32N 53°35' E 008°31'0 0.0
2014-Apr-05 07:32N 53°35' E 008°31'0 0.0
2014-Apr-05 06:32N 53°35' E 008°31'0 0.0
2014-Apr-05 05:32N 53°35' E 008°31'0 0.0
2014-Apr-05 04:31N 53°35' E 008°31'0 0.0
2014-Apr-05 03:33N 53°35' E 008°31'0 0.0
2014-Apr-05 02:32N 53°35' E 008°31'0 0.0
2014-Apr-05 01:33N 53°35' E 008°31'0 0.0
2014-Apr-05 00:31N 53°35' E 008°31'0 0.0
2014-Apr-04 23:33N 53°35' E 008°31'0 0.0
2014-Apr-04 22:33N 53°35' E 008°31'0 0.0
2014-Apr-04 21:31N 53°35' E 008°31'0 0.0
2014-Apr-04 20:33N 53°35' E 008°31'0 0.0
2014-Apr-04 19:33N 53°35' E 008°31'0 0.0
2014-Apr-04 18:33N 53°35' E 008°31'0 0.0
2014-Apr-04 17:33N 53°35' E 008°31'0 0.0
2014-Apr-04 16:33N 53°35' E 008°31'0 0.0
2014-Apr-04 15:31N 53°35' E 008°31'0 0.0
2014-Apr-04 14:31N 53°35' E 008°31'0 0.0
2014-Apr-04 13:33N 53°35' E 008°31'0 0.0
2014-Apr-04 12:31N 53°35' E 008°31'0 0.3
2014-Apr-04 11:34N 53°36' E 008°31'1414.5
2014-Apr-04 10:33N 53°45' E 008°13'1514.8
2014-Apr-04 09:33N 53°53' E 007°52'1 0.6
2014-Apr-04 08:31N 53°54' E 007°52'0 0.0
2014-Apr-04 07:31N 53°54' E 007°52'0 0.0
2014-Apr-04 06:33N 53°54' E 007°52'2 1.9
2014-Apr-04 05:33N 53°56' E 007°50'1615.9
2014-Apr-04 04:33N 54°00' E 008°16'1716.6
2014-Apr-04 03:33N 53°54' E 008°42'1312.8
2014-Apr-04 02:34N 53°52' E 009°03'4 3.8
2014-Apr-04 01:33N 53°54' E 009°09'2 1.6
2014-Apr-04 00:34N 53°55' E 009°11'7 6.5
2014-Apr-03 23:33N 54°00' E 009°18'6 6.0
2014-Apr-03 22:33N 54°06' E 009°20'6 6.1
2014-Apr-03 21:33N 54°10' E 009°27'7 6.6
2014-Apr-03 20:33N 54°14' E 009°36'8 6.5
2014-Apr-03 19:21N 54°20' E 009°44'49 7.1
2014-Apr-03 12:29N 54°36' E 011°04'1515.9
2014-Apr-03 11:34N 54°31' E 011°28'1514.8
2014-Apr-03 10:33N 54°26' E 011°52'1211.6
2014-Apr-03 09:33N 54°28' E 012°12'1211.5
2014-Apr-03 08:34N 54°38' E 012°21'1212.2
2014-Apr-03 07:34N 54°45' E 012°38'1211.6
2014-Apr-03 06:33N 54°47' E 012°58'1211.7
2014-Apr-03 05:33N 54°47' E 013°19'1111.4
2014-Apr-03 04:33N 54°47' E 013°38'1111.1
2014-Apr-03 03:33N 54°43' E 013°56'1212.0
2014-Apr-03 02:34N 54°39' E 014°16'1211.8
2014-Apr-03 01:33N 54°39' E 014°36'1311.7
2014-Apr-03 00:27N 54°41' E 014°58'9213.2
2014-Apr-02 17:29N 54°55' E 017°36'1617.5
2014-Apr-02 16:34N 54°55' E 018°04'1817.6
2014-Apr-02 15:33N 54°55' E 018°35'1716.7
2014-Apr-02 14:33N 54°49' E 019°02'1616.1
2014-Apr-02 13:33N 54°33' E 019°05'1312.8
2014-Apr-02 12:33N 54°25' E 018°48'3 3.2
2014-Apr-02 11:33N 54°23' E 018°43'0 0.0
2014-Apr-02 10:33N 54°23' E 018°43'0 0.0
2014-Apr-02 09:33N 54°23' E 018°43'0 0.0
2014-Apr-02 08:31N 54°23' E 018°43'0 0.0
2014-Apr-02 07:31N 54°23' E 018°43'0 0.0
2014-Apr-02 06:31N 54°23' E 018°43'0 0.0
2014-Apr-02 05:32N 54°23' E 018°43'0 0.0
2014-Apr-02 04:33N 54°23' E 018°43'1 1.3
2014-Apr-02 03:34N 54°24' E 018°44'10 9.9
2014-Apr-02 02:34N 54°30' E 018°59'1211.6
2014-Apr-02 01:33N 54°41' E 019°03'1717.5
2014-Apr-02 00:33N 54°57' E 019°13'  

Dump ship's entire track history

sailing weather and tide predictions

Suederoog — ZDHC8 — position and weather